Satellite Actuals Today Synoptics Week ahead

Weather information and forecast links for Shobdon, the Midlands, Western England and Wales

Today:

BBC Leominster local forecast and regional video.

Met Office general forecast

Met Office F214 and F215 charts (as displayed in the Aero Club each day) You have to register to use this site, but it is free.

Links to pretty much everything you need Rackham's home.

Satellite Met Office or Sat24 - visual for lower cloud, infrared for upper cloud.

XCWeather Wind map and local forecast

Will it Rain Today?

TAFs and METARs EGBB:Birmingham EGFF:Cardiff EGVN:Brize Norton

Local forecasts Met Office  MetCheck  Weatherweb

RASP Ridge wind forecast

Dewpoint+Temperature tephigram UK Soundings or Weather online


Other Club sites:Dunstable  Lasham  Nympsfield Long Mynd

Shobdon Hangar web-cam facing Southwest

Latest TAFs

Birmingham

2019/03/26 12:06
TAF TAF EGBB 261102Z 2612/2712 32008KT 9999 SCT045 PROB30 
      TEMPO 2702/2709 9000

Brize Norton

2019/03/26 15:39
TAF TAF EGVN 261331Z 2615/2715 33006KT 9999 SCT035 PROB30 
      TEMPO 2622/2711 SCT020

Cardiff

2019/03/26 12:06
TAF EGFF 261102Z 2612/2712 26010KT 9999 FEW045 
      BECMG 2621/2624 VRB03KT PROB30 2703/2708 6000

Select station

2019/03/26 12:06
TAF EGCC 261101Z 2612/2718 29010KT 9999 SCT035 
      BECMG 2620/2623 23005KT 
      BECMG 2709/2712 30010KT

Decode?  - Copy the TAF (from the station code) and paste it into the METARs/TAFs box here.

Soaring data for today

Data provided by RASP

Today's Forecast for Shobdon (52.24207,-2.87443)
Stars rating
Wind direction
Wind speed
Cumrasp-uk.ukulus potential
Surface Sunshine
Surface Temperature
MSL Pressuree
Rainfall